Time;durP1;ratioP1;P1;durP2;ratioP2;P2;SDS_P1;SDS_P2;PMS_P1;PMS_P2;Temp;Humidity;BMP_temperature;BMP_pressure;BME280_temperature;BME280_humidity;BME280_pressure;Samples;Min_cycle;Max_cycle;Signal;HPM_P1;HPM_P2
2022/06/01 00:00:38;;;;;;;13.95;10.80;;;;;;;;;;4934947;29;20047;-86
2022/06/01 00:03:04;;;;;;;12.05;9.93;;;;;;;;;;4934933;29;20047;-86
2022/06/01 00:05:30;;;;;;;14.55;10.70;;;;;;;;;;4917333;29;20051;-85
2022/06/01 00:07:57;;;;;;;10.70;9.43;;;;;;;;;;4934793;29;20047;-84
2022/06/01 00:10:23;;;;;;;12.43;10.23;;;;;;;;;;5033260;28;20048;-85
2022/06/01 00:12:49;;;;;;;15.27;10.38;;;;;;;;;;5016563;28;20487;-84
2022/06/01 00:15:17;;;;;;;16.42;10.95;;;;;;;;;;5016627;28;20040;-83
2022/06/01 00:17:43;;;;;;;15.23;10.52;;;;;;;;;;5016457;28;20037;-82
2022/06/01 00:20:10;;;;;;;16.00;10.65;;;;;;;;;;5036275;28;20049;-84
2022/06/01 00:22:36;;;;;;;12.75;10.40;;;;;;;;;;5018871;28;20052;-86
2022/06/01 00:25:04;;;;;;;16.40;10.77;;;;;;;;;;5036954;28;20060;-83
2022/06/01 00:27:31;;;;;;;13.63;10.68;;;;;;;;;;5036409;28;20056;-87
2022/06/01 00:29:57;;;;;;;13.50;10.88;;;;;;;;;;5020457;28;20451;-85
2022/06/01 00:32:23;;;;;;;15.70;11.07;;;;;;;;;;5019759;28;20040;-86
2022/06/01 00:34:49;;;;;;;13.32;10.32;;;;;;;;;;5020167;28;20069;-82
2022/06/01 00:37:17;;;;;;;13.30;10.55;;;;;;;;;;5019205;28;20136;-86
2022/06/01 00:39:44;;;;;;;13.60;11.07;;;;;;;;;;5019914;28;20037;-85
2022/06/01 00:42:15;;;;;;;12.38;10.38;;;;;;;;;;5019715;28;20081;-85
2022/06/01 00:44:41;;;;;;;14.10;11.18;;;;;;;;;;5036374;28;20045;-86
2022/06/01 00:47:08;;;;;;;14.07;10.55;;;;;;;;;;5036280;28;20049;-86
2022/06/01 00:49:35;;;;;;;14.10;10.93;;;;;;;;;;5036301;28;20045;-87
2022/06/01 00:52:02;;;;;;;13.52;10.13;;;;;;;;;;5036036;28;20047;-85
2022/06/01 00:54:28;;;;;;;14.85;11.05;;;;;;;;;;5036598;28;20102;-85
2022/06/01 00:56:57;;;;;;;12.68;11.38;;;;;;;;;;5037460;28;20481;-83
2022/06/01 00:59:27;;;;;;;12.05;10.77;;;;;;;;;;5019403;28;20053;-83
2022/06/01 01:01:54;;;;;;;14.50;10.82;;;;;;;;;;5035822;28;20178;-86
2022/06/01 01:04:20;;;;;;;15.68;11.15;;;;;;;;;;5019741;28;20139;-85
2022/06/01 01:06:46;;;;;;;11.60;10.38;;;;;;;;;;5035920;28;20095;-85
2022/06/01 01:09:13;;;;;;;13.85;11.23;;;;;;;;;;5019426;28;20484;-83
2022/06/01 01:11:51;;;;;;;14.82;11.45;;;;;;;;;;5023465;28;20041;-85
2022/06/01 01:14:25;;;;;;;13.00;11.32;;;;;;;;;;5036902;28;20049;-83
2022/06/01 01:16:52;;;;;;;13.93;12.43;;;;;;;;;;5034630;28;20508;-84
2022/06/01 01:19:32;;;;;;;12.60;11.32;;;11.10;99.90;;;;;;5036681;28;20111;-84
2022/06/01 01:22:24;;;;;;;12.32;10.93;;;10.90;99.90;;;;;;5036435;28;20044;-82
2022/06/01 01:25:09;;;;;;;13.02;11.57;;;;;;;;;;5034848;28;20037;-84
2022/06/01 01:27:35;;;;;;;16.10;11.32;;;;;;;;;;5019592;28;20080;-83
2022/06/01 01:30:01;;;;;;;16.10;12.27;;;;;;;;;;5018545;28;20082;-83
2022/06/01 01:32:27;;;;;;;12.98;11.60;;;;;;;;;;5018873;28;20107;-85
2022/06/01 01:34:53;;;;;;;14.35;11.90;;;;;;;;;;5019013;28;20135;-87
2022/06/01 01:37:25;;;;;;;15.65;10.77;;;;;;;;;;5034370;28;20045;-85
2022/06/01 01:39:53;;;;;;;14.07;11.55;;;11.00;99.90;;;;;;5035485;28;20095;-87
2022/06/01 01:42:19;;;;;;;13.57;11.40;;;;;;;;;;5053065;28;20057;-88
2022/06/01 01:44:48;;;;;;;13.07;10.90;;;;;;;;;;5035492;28;20044;-85
2022/06/01 01:47:14;;;;;;;13.93;11.90;;;;;;;;;;5035431;28;20037;-87
2022/06/01 01:49:41;;;;;;;12.90;11.52;;;;;;;;;;5035512;28;20080;-85
2022/06/01 01:52:12;;;;;;;13.60;11.68;;;;;;;;;;5035408;28;20484;-88
2022/06/01 01:54:57;;;;;;;13.82;12.25;;;;;;;;;;5035276;28;20037;-85
2022/06/01 01:57:42;;;;;;;16.38;12.55;;;;;;;;;;5035967;28;20548;-85
2022/06/01 02:00:17;;;;;;;19.40;13.82;;;;;;;;;;5035245;28;20049;-86
2022/06/01 02:02:50;;;;;;;13.80;12.23;;;;;;;;;;5018247;28;20055;-87
2022/06/01 02:08:26;;;;;;;14.38;12.88;;;;;;;;;;5035682;28;20056;-87
2022/06/01 02:13:45;;;;;;;14.80;12.75;;;;;;;;;;5034759;28;20056;-87
2022/06/01 02:16:11;;;;;;;15.18;13.50;;;;;;;;;;5034781;28;20099;-87
2022/06/01 02:18:44;;;;;;;14.90;12.65;;;11.10;99.90;;;;;;5034429;28;20056;-87
2022/06/01 02:21:14;;;;;;;15.65;13.60;;;;;;;;;;5034698;28;20049;-84
2022/06/01 02:23:41;;;;;;;15.77;13.85;;;;;;;;;;5018194;28;20190;-84
2022/06/01 02:26:07;;;;;;;14.35;12.55;;;;;;;;;;5018218;28;20136;-84
2022/06/01 02:28:33;;;;;;;16.98;12.93;;;;;;;;;;5034283;28;20045;-86
2022/06/01 02:31:00;;;;;;;16.23;13.43;;;;;;;;;;5018165;28;20183;-84
2022/06/01 02:33:28;;;;;;;13.82;12.40;;;;;;;;;;5030681;28;20054;-86
2022/06/01 02:35:54;;;;;;;18.40;12.32;;;;;;;;;;4998516;28;20053;-84
2022/06/01 02:38:26;;;;;;;14.35;12.13;;;;;;;;;;5014508;28;20046;-86
2022/06/01 02:40:53;;;;;;;18.25;13.52;;;;;;;;;;4998283;28;20045;-84
2022/06/01 02:43:19;;;;;;;14.43;12.93;;;;;;;;;;5015228;28;20496;-83
2022/06/01 02:45:45;;;;;;;15.15;13.32;;;;;;;;;;5034166;28;20053;-83
2022/06/01 02:48:11;;;;;;;15.05;13.05;;;;;;;;;;5034086;28;20049;-84
2022/06/01 02:50:38;;;;;;;19.02;14.43;;;;;;;;;;5017579;28;20052;-83
2022/06/01 02:53:05;;;;;;;15.40;13.75;;;;;;;;;;5040514;28;20032;-83
2022/06/01 02:55:31;;;;;;;15.00;13.38;;;;;;;;;;5037093;28;20049;-86
2022/06/01 02:57:58;;;;;;;19.27;13.43;;;;;;;;;;5053839;28;20060;-82
2022/06/01 03:00:26;;;;;;;19.75;12.60;;;;;;;;;;5037014;28;20040;-82
2022/06/01 03:02:53;;;;;;;13.13;11.43;;;;;;;;;;5050748;28;20404;-83
2022/06/01 03:05:21;;;;;;;14.50;10.27;;;;;;;;;;5033992;28;20489;-83
2022/06/01 03:07:47;;;;;;;9.48;8.57;;;;;;;;;;5033991;28;20492;-83
2022/06/01 03:10:13;;;;;;;8.48;7.68;;;;;;;;;;5016933;28;20144;-84
2022/06/01 03:12:39;;;;;;;7.63;6.93;;;;;;;;;;5033430;28;20480;-83
2022/06/01 03:15:07;;;;;;;10.82;9.77;;;;;;;;;;5019398;28;20045;-83
2022/06/01 03:17:33;;;;;;;13.23;11.63;;;;;;;;;;5033713;28;20037;-82
2022/06/01 03:20:00;;;;;;;13.13;11.68;;;;;;;;;;5033507;28;20127;-83
2022/06/01 03:22:26;;;;;;;15.18;11.80;;;;;;;;;;5033727;28;20396;-84
2022/06/01 03:24:52;;;;;;;13.48;12.15;;;;;;;;;;5017938;28;20051;-86
2022/06/01 03:27:18;;;;;;;15.50;12.95;;;;;;;;;;5016780;28;20040;-86
2022/06/01 03:29:45;;;;;;;15.57;13.50;;;;;;;;;;5032226;28;20091;-83
2022/06/01 03:32:11;;;;;;;14.30;12.80;;;;;;;;;;5033117;28;20041;-85
2022/06/01 03:34:37;;;;;;;19.77;14.85;;;;;;;;;;5032339;28;20049;-82
2022/06/01 03:37:04;;;;;;;19.40;14.95;;;;;;;;;;5016084;28;20069;-83
2022/06/01 03:39:30;;;;;;;19.13;15.07;;;;;;;;;;5016538;28;20135;-83
2022/06/01 03:41:58;;;;;;;18.27;15.07;;;;;;;;;;5033407;28;20045;-87
2022/06/01 03:47:09;;;;;;;16.55;14.57;;;;;;;;;;5025578;28;20080;-84
2022/06/01 03:49:35;;;;;;;19.55;15.63;;;;;;;;;;5014118;28;20116;-85
2022/06/01 03:52:02;;;;;;;20.20;14.93;;;;;;;;;;5016362;28;20045;-87
2022/06/01 03:54:28;;;;;;;18.20;15.20;;;;;;;;;;5032707;28;20033;-84
2022/06/01 03:56:54;;;;;;;20.38;15.55;;;;;;;;;;5033301;28;20049;-86
2022/06/01 03:59:20;;;;;;;20.38;15.05;;;;;;;;;;5032998;28;20045;-83
2022/06/01 04:01:46;;;;;;;17.42;14.90;;;;;;;;;;5027786;28;20052;-86
2022/06/01 04:04:12;;;;;;;17.83;14.30;;;;;;;;;;5032825;28;20416;-84
2022/06/01 04:06:39;;;;;;;19.73;16.15;;;;;;;;;;5033252;28;20507;-86
2022/06/01 04:09:05;;;;;;;19.23;15.60;;;;;;;;;;5033759;28;20048;-86
2022/06/01 04:11:31;;;;;;;17.33;15.25;;;;;;;;;;5031187;28;20075;-88
2022/06/01 04:13:57;;;;;;;18.50;14.80;;;;;;;;;;5009055;28;20045;-83
2022/06/01 04:16:23;;;;;;;20.23;18.02;;;;;;;;;;5032535;28;20048;-82
2022/06/01 04:18:49;;;;;;;21.08;17.92;;;;;;;;;;5016862;28;20041;-82
2022/06/01 04:21:17;;;;;;;16.92;15.13;;;;;;;;;;5033140;28;20077;-82
2022/06/01 04:23:43;;;;;;;20.42;14.77;;;;;;;;;;5016379;28;20051;-82
2022/06/01 04:26:09;;;;;;;17.65;15.40;;;;;;;;;;5015242;28;20616;-83
2022/06/01 04:28:35;;;;;;;30.90;17.27;;;;;;;;;;5033377;28;20045;-82
2022/06/01 04:31:01;;;;;;;20.70;16.30;;;;;;;;;;5017034;28;20060;-82
2022/06/01 04:33:27;;;;;;;18.02;15.32;;;;;;;;;;5017045;28;20083;-83
2022/06/01 04:35:54;;;;;;;19.45;15.65;;;;;;;;;;5032159;28;20111;-81
2022/06/01 04:38:20;;;;;;;21.90;16.67;;;;;;;;;;5033414;28;20477;-83
2022/06/01 04:40:47;;;;;;;20.58;15.70;;;;;;;;;;5033303;28;20045;-83
2022/06/01 04:43:14;;;;;;;22.52;16.05;;;;;;;;;;5017005;28;20037;-84
2022/06/01 04:45:40;;;;;;;18.23;16.30;;;;;;;;;;5016791;28;20048;-83
2022/06/01 04:48:06;;;;;;;17.58;15.60;;;;;;;;;;5033043;28;20127;-86
2022/06/01 04:50:33;;;;;;;21.63;16.77;;;;;;;;;;5033414;28;20037;-82
2022/06/01 04:53:00;;;;;;;17.92;16.08;;;;;;;;;;5033110;28;20048;-85
2022/06/01 04:55:26;;;;;;;18.98;15.98;;;;;;;;;;5033581;28;20049;-85
2022/06/01 04:57:52;;;;;;;20.77;16.67;;;;;;;;;;5010438;28;20041;-85
2022/06/01 05:00:18;;;;;;;21.90;15.70;;;;;;;;;;5016508;28;20128;-85
2022/06/01 05:02:44;;;;;;;19.83;16.63;;;;;;;;;;5033447;28;20467;-86
2022/06/01 05:05:10;;;;;;;20.67;16.70;;;;;;;;;;5016643;28;20095;-86
2022/06/01 05:07:36;;;;;;;18.15;15.93;;;;;;;;;;5015145;28;20448;-85
2022/06/01 05:10:03;;;;;;;20.50;16.10;;;;;;;;;;5020255;28;20056;-85
2022/06/01 05:12:29;;;;;;;20.25;17.02;;;;;;;;;;5036860;28;20037;-83
2022/06/01 05:14:55;;;;;;;18.80;16.48;;;;;;;;;;5036632;28;20139;-84
2022/06/01 05:17:21;;;;;;;18.80;16.17;;;;;;;;;;5028622;28;20386;-84
2022/06/01 05:19:47;;;;;;;22.25;17.15;;;;;;;;;;5019041;28;20041;-85
2022/06/01 05:22:13;;;;;;;26.13;16.63;;;;;;;;;;5035040;28;20136;-86
2022/06/01 05:24:39;;;;;;;20.45;16.17;;;;;;;;;;5039167;28;20048;-86
2022/06/01 05:27:07;;;;;;;21.25;16.80;;;;;;;;;;5039971;28;20051;-85
2022/06/01 05:29:33;;;;;;;21.77;16.63;;;;;;;;;;5023340;28;20399;-84
2022/06/01 05:31:59;;;;;;;18.52;16.23;;;;;;;;;;5039249;28;20056;-83
2022/06/01 05:34:25;;;;;;;20.33;16.90;;;;;;;;;;5039523;28;20057;-87
2022/06/01 05:36:51;;;;;;;18.30;16.27;;;;;;;;;;5023486;28;20718;-85
2022/06/01 05:39:17;;;;;;;22.08;15.93;;;;;;;;;;5040041;28;20041;-85
2022/06/01 05:41:43;;;;;;;18.17;15.77;;;;;;;;;;5038436;28;20049;-86
2022/06/01 05:44:10;;;;;;;20.15;15.48;;;;;;;;;;5057801;28;20045;-85
2022/06/01 05:46:36;;;;;;;18.58;15.88;;;;;;;;;;5039792;28;20509;-86
2022/06/01 05:49:03;;;;;;;17.17;15.10;;;;;;;;;;5036759;28;20084;-86
2022/06/01 05:51:29;;;;;;;18.95;15.45;;;;;;;;;;5035625;28;20120;-83
2022/06/01 05:53:55;;;;;;;22.35;17.60;;;;;;;;;;5018766;28;20064;-85
2022/06/01 05:56:21;;;;;;;22.98;17.38;;;;;;;;;;5036012;28;20390;-86
2022/06/01 05:58:50;;;;;;;20.55;16.42;;;;;;;;;;5034773;28;20175;-85
2022/06/01 06:01:22;;;;;;;21.60;17.17;;;;;;;;;;5032164;28;20516;-83
2022/06/01 06:03:50;;;;;;;22.00;18.45;;;;;;;;;;5010235;28;20036;-84
2022/06/01 06:06:16;;;;;;;19.80;17.33;;;;;;;;;;5033790;28;20060;-83
2022/06/01 06:08:51;;;;;;;24.85;20.40;;;12.10;99.90;;;;;;5035284;28;20072;-84
2022/06/01 06:11:18;;;;;;;22.60;20.02;;;;;;;;;;5036195;28;20048;-83
2022/06/01 06:13:44;;;;;;;22.45;18.65;;;;;;;;;;5020197;28;20048;-83
2022/06/01 06:16:10;;;;;;;23.55;17.52;;;;;;;;;;5036022;28;20045;-84
2022/06/01 06:18:37;;;;;;;21.35;19.05;;;;;;;;;;5035173;28;20460;-84
2022/06/01 06:21:03;;;;;;;24.00;18.45;;;;;;;;;;5036125;28;20072;-83
2022/06/01 06:23:30;;;;;;;21.17;16.52;;;;;;;;;;5036122;28;20044;-85
2022/06/01 06:25:56;;;;;;;17.90;14.70;;;;;;;;;;5036279;28;20049;-83
2022/06/01 06:28:22;;;;;;;16.60;13.88;;;;;;;;;;5019686;28;20087;-83
2022/06/01 06:30:48;;;;;;;19.15;13.50;;;;;;;;;;5019805;28;20295;-83
2022/06/01 06:33:14;;;;;;;14.63;12.80;;;;;;;;;;4995670;28;20061;-83
2022/06/01 06:35:40;;;;;;;16.85;13.63;;;;;;;;;;5009158;28;20065;-83
2022/06/01 06:38:08;;;;;;;17.17;13.65;;;;;;;;;;5008065;28;20461;-84
2022/06/01 06:40:34;;;;;;;14.00;12.43;;;;;;;;;;5008419;28;20050;-84
2022/06/01 06:43:00;;;;;;;12.70;11.32;;;;;;;;;;5028426;28;20100;-82
2022/06/01 06:45:26;;;;;;;11.07;9.85;;;;;;;;;;4985145;28;20085;-85
2022/06/01 06:47:52;;;;;;;10.88;9.70;;;;;;;;;;5003216;28;20050;-82
2022/06/01 06:50:19;;;;;;;10.07;9.00;;;;;;;;;;4985900;28;20085;-84
2022/06/01 06:52:45;;;;;;;11.02;9.40;;;;;;;;;;5010588;28;20057;-81
2022/06/01 06:55:12;;;;;;;12.60;9.68;;;;;;;;;;5001137;28;20497;-81
2022/06/01 06:57:38;;;;;;;11.48;8.93;;;;;;;;;;5001376;28;20108;-82
2022/06/01 07:00:08;;;;;;;10.27;9.20;;;;;;;;;;5010442;28;20509;-82
2022/06/01 07:02:35;;;;;;;11.75;9.60;;;;;;;;;;5006360;28;20060;-81
2022/06/01 07:05:02;;;;;;;10.93;9.82;;;;;;;;;;4986975;28;20085;-83
2022/06/01 07:07:28;;;;;;;13.88;10.45;;;;;;;;;;4994730;28;20507;-83
2022/06/01 07:09:54;;;;;;;10.75;9.63;;;;;;;;;;5000368;28;20042;-82
2022/06/01 07:12:20;;;;;;;13.98;10.32;;;;;;;;;;5025970;28;20052;-85
2022/06/01 07:14:46;;;;;;;12.07;10.70;;;;;;;;;;5003194;28;20085;-82
2022/06/01 07:17:12;;;;;;;16.80;12.30;;;;;;;;;;5004055;28;20041;-85
2022/06/01 07:19:38;;;;;;;13.57;12.23;;;;;;;;;;5021480;28;20053;-82
2022/06/01 07:22:04;;;;;;;15.05;13.27;;;;;;;;;;5002354;28;20084;-82
2022/06/01 07:24:32;;;;;;;20.48;13.73;;;;;;;;;;5008187;28;20459;-82
2022/06/01 07:26:58;;;;;;;15.13;12.52;;;;;;;;;;4992544;28;20060;-81
2022/06/01 07:29:24;;;;;;;15.85;12.48;;;;;;;;;;4994148;28;20092;-82
2022/06/01 07:31:50;;;;;;;12.27;10.77;;;;;;;;;;5007983;28;20057;-84
2022/06/01 07:34:17;;;;;;;11.05;9.95;;;;;;;;;;4995868;28;20145;-83
2022/06/01 07:36:45;;;;;;;10.68;9.52;;;;;;;;;;5000787;28;20046;-82
2022/06/01 07:44:43;;;;;;;5.03;4.47;;;;;;;;;;4999835;28;20149;-85
2022/06/01 07:47:10;;;;;;;5.40;4.90;;;;;;;;;;5002077;28;20053;-82
2022/06/01 07:49:37;;;;;;;5.50;5.00;;;;;;;;;;4984466;28;20060;-83
2022/06/01 07:52:03;;;;;;;4.57;4.07;;;;;;;;;;4983761;28;20038;-83
2022/06/01 07:54:30;;;;;;;4.68;4.28;;;;;;;;;;4984417;28;20533;-84
2022/06/01 07:56:56;;;;;;;3.47;3.17;;;;;;;;;;5019226;28;20045;-82
2022/06/01 07:59:22;;;;;;;3.50;3.20;;;;;;;;;;5020910;28;20053;-88
2022/06/01 08:01:48;;;;;;;4.03;3.63;;;;;;;;;;5014443;28;20104;-85
2022/06/01 08:04:16;;;;;;;2.67;2.42;;;;;;;;;;5004102;28;20391;-84
2022/06/01 08:06:42;;;;;;;2.83;2.50;;;;;;;;;;5010677;28;20081;-83
2022/06/01 08:09:08;;;;;;;2.20;1.90;;;;;;;;;;4998587;28;20421;-85
2022/06/01 08:14:20;;;;;;;3.42;1.90;;;;;;;;;;5002185;28;20054;-86
2022/06/01 08:16:46;;;;;;;2.03;1.83;;;;;;;;;;5019659;28;20053;-83
2022/06/01 08:19:12;;;;;;;1.50;1.40;;;;;;;;;;5001697;28;20049;-86
2022/06/01 08:21:38;;;;;;;1.92;1.50;;;;;;;;;;5018777;28;20049;-82
2022/06/01 08:24:05;;;;;;;1.73;1.63;;;;;;;;;;5002286;28;20072;-86
2022/06/01 08:26:31;;;;;;;2.22;2.03;;;;;;;;;;5008957;28;20817;-83
2022/06/01 08:28:58;;;;;;;1.77;1.67;;;;;;;;;;5019979;28;20045;-83
2022/06/01 08:31:27;;;;;;;2.08;1.90;;;;;;;;;;5017575;28;20505;-86
2022/06/01 08:33:59;;;;;;;2.15;2.00;;;;;;;;;;5006111;28;20104;-82
2022/06/01 08:36:25;;;;;;;1.50;1.40;;;;;;;;;;5028302;28;20080;-83
2022/06/01 08:38:52;;;;;;;2.25;1.70;;;;;;;;;;5028724;28;20393;-86
2022/06/01 08:41:20;;;;;;;1.92;1.60;;;;;;;;;;5026941;28;20048;-87
2022/06/01 08:43:50;;;;;;;2.15;1.90;;;;;;;;;;5026032;28;20041;-82
2022/06/01 08:46:18;;;;;;;2.05;1.92;;;13.80;99.90;;;;;;5029081;28;20053;-83
2022/06/01 08:48:47;;;;;;;1.17;1.10;;;;;;;;;;5026489;28;20071;-82
2022/06/01 08:51:14;;;;;;;1.63;1.52;;;13.90;99.90;;;;;;5025993;28;20085;-82
2022/06/01 08:53:40;;;;;;;1.77;1.67;;;13.90;99.90;;;;;;5016705;28;20472;-82
2022/06/01 08:56:15;;;;;;;1.83;1.73;;;;;;;;;;5046024;28;20116;-85
2022/06/01 08:58:43;;;;;;;2.10;1.90;;;;;;;;;;5025590;28;20050;-83
2022/06/01 09:01:20;;;;;;;1.77;1.67;;;;;;;;;;5010577;28;20464;-82
2022/06/01 09:03:52;;;;;;;2.10;1.90;;;;;;;;;;5008015;28;20052;-83
2022/06/01 09:06:30;;;;;;;1.90;1.80;;;14.60;99.90;;;;;;5025475;28;20485;-83
2022/06/01 09:08:59;;;;;;;2.22;2.10;;;;;;;;;;5024324;28;20045;-84
2022/06/01 09:11:32;;;;;;;1.88;1.77;;;14.40;99.90;;;;;;5031842;28;20072;-83
2022/06/01 09:13:58;;;;;;;2.67;2.45;;;;;;;;;;5024831;28;20894;-84
2022/06/01 09:16:36;;;;;;;2.45;2.13;;;;;;;;;;5023531;28;20051;-83
2022/06/01 09:19:03;;;;;;;3.05;2.75;;;;;;;;;;5025020;28;20061;-84
2022/06/01 09:24:25;;;;;;;2.30;2.10;;;;;;;;;;5024321;28;20055;-83
2022/06/01 09:26:53;;;;;;;1.90;1.80;;;;;;;;;;5016128;28;20052;-87
2022/06/01 09:29:21;;;;;;;1.80;1.70;;;;;;;;;;5009611;28;20077;-82
2022/06/01 09:31:48;;;;;;;3.20;1.92;;;14.70;99.90;;;;;;5013995;28;20049;-83
2022/06/01 09:34:21;;;;;;;3.28;1.98;;;;;;;;;;5011009;28;20455;-83
2022/06/01 09:37:04;;;;;;;2.17;1.98;;;14.90;99.90;;;;;;5009002;28;20417;-83
2022/06/01 09:39:30;;;;;;;3.30;2.08;;;;;;;;;;5030280;28;20130;-82
2022/06/01 09:42:12;;;;;;;3.00;2.08;;;;;;;;;;5024731;28;20056;-83
2022/06/01 09:44:43;;;;;;;2.33;2.13;;;;;;;;;;5014281;28;20051;-82
2022/06/01 09:47:08;;;;;;;2.15;2.03;;;14.90;99.90;;;;;;5031790;28;20056;-83
2022/06/01 09:49:42;;;;;;;2.83;1.92;;;15.00;99.90;;;;;;5031062;28;20057;-82
2022/06/01 09:52:08;;;;;;;2.60;2.40;;;;;;;;;;5014665;28;20049;-83
2022/06/01 09:54:37;;;;;;;2.55;2.35;;;;;;;;;;5030827;28;20084;-84
2022/06/01 09:57:20;;;;;;;2.95;2.75;;;14.90;99.90;;;;;;5031118;28;20071;-88
2022/06/01 10:08:18;;;;;;;2.33;2.13;;;15.30;99.90;;;;;;5028424;28;20402;-83
2022/06/01 10:10:58;;;;;;;3.22;2.10;;;15.20;99.90;;;;;;5008890;28;20063;-84
2022/06/01 10:13:34;;;;;;;2.40;2.20;;;;;;;;;;5025460;28;20049;-83
2022/06/01 10:16:10;;;;;;;2.25;2.10;;;15.00;99.90;;;;;;5022439;28;20460;-84
2022/06/01 10:18:37;;;;;;;2.08;1.98;;;;;;;;;;5008421;28;20045;-87
2022/06/01 10:21:08;;;;;;;5.00;1.88;;;15.10;99.90;;;;;;5032977;28;20666;-86
2022/06/01 10:23:51;;;;;;;2.08;1.88;;;14.90;99.90;;;;;;5019673;28;20042;-83
2022/06/01 10:26:25;;;;;;;2.42;1.77;;;;;;;;;;5036107;28;20140;-83
2022/06/01 10:29:16;;;;;;;1.88;1.73;;;;;;;;;;5016181;28;20115;-84
2022/06/01 10:31:50;;;;;;;2.77;2.30;;;;;;;;;;5039336;22;20056;-83
2022/06/01 10:34:18;;;;;;;1.67;1.50;;;;;;;;;;5082396;28;20294;-81
2022/06/01 10:36:54;;;;;;;1.25;1.08;;;;;;;;;;5059651;28;20058;-82
2022/06/01 10:39:25;;;;;;;2.95;1.45;;;;;;;;;;5076340;28;20040;-83
2022/06/01 10:42:04;;;;;;;2.03;1.73;;;;;;;;;;5058607;28;20051;-83
2022/06/01 10:44:33;;;;;;;2.45;1.67;;;;;;;;;;5058935;28;20036;-82
2022/06/01 10:47:01;;;;;;;2.72;2.53;;;;;;;;;;5057972;28;20085;-84
2022/06/01 10:49:54;;;;;;;2.80;2.60;;;;;;;;;;5074428;28;20118;-85
2022/06/01 10:52:25;;;;;;;2.75;2.55;;;;;;;;;;5091672;28;20040;-84
2022/06/01 10:55:07;;;;;;;3.40;2.97;;;;;;;;;;5090308;28;20048;-83
2022/06/01 10:57:36;;;;;;;2.67;2.47;;;;;;;;;;5071363;28;20043;-83
2022/06/01 11:00:04;;;;;;;2.05;1.92;;;;;;;;;;5053499;28;20055;-88
2022/06/01 11:02:39;;;;;;;2.15;1.63;;;;;;;;;;5053022;28;20138;-88
2022/06/01 11:05:17;;;;;;;1.55;1.45;;;;;;;;;;5052834;28;20589;-87
2022/06/01 11:08:00;;;;;;;1.35;1.25;;;14.40;99.90;;;;;;5054233;28;20063;-89
2022/06/01 11:10:58;;;;;;;1.20;1.10;;;14.30;99.90;;;;;;5053539;28;20475;-86
2022/06/01 11:13:25;;;;;;;2.40;1.10;;;;;;;;;;5053790;28;20643;-85
2022/06/01 11:15:57;;;;;;;0.93;0.93;;;;;;;;;;5052727;28;20051;-88
2022/06/01 11:18:43;;;;;;;1.35;1.08;;;;;;;;;;5054269;28;20156;-86
2022/06/01 11:21:12;;;;;;;1.20;1.10;;;;;;;;;;5088076;28;20048;-86
2022/06/01 11:23:44;;;;;;;1.10;1.10;;;;;;;;;;5067724;28;20048;-87
2022/06/01 11:26:18;;;;;;;0.50;0.50;;;;;;;;;;5052230;28;20142;-88
2022/06/01 11:29:03;;;;;;;0.60;0.60;;;;;;;;;;5053490;28;20050;-89
2022/06/01 11:31:30;;;;;;;0.70;0.70;;;;;;;;;;5050911;28;20060;-87
2022/06/01 11:33:57;;;;;;;3.47;0.88;;;;;;;;;;5068488;28;20053;-85
2022/06/01 11:36:44;;;;;;;0.70;0.70;;;;;;;;;;5051375;28;20059;-89
2022/06/01 11:39:30;;;;;;;0.90;0.90;;;;;;;;;;5069907;28;20048;-88
2022/06/01 11:42:00;;;;;;;1.13;1.13;;;;;;;;;;5068534;28;20148;-90
2022/06/01 11:44:32;;;;;;;1.38;1.27;;;;;;;;;;5069858;28;20099;-87
2022/06/01 11:47:04;;;;;;;1.50;1.40;;;;;;;;;;5052849;28;20051;-87
2022/06/01 11:49:55;;;;;;;1.50;1.40;;;;;;;;;;5053695;28;20098;-89
2022/06/01 11:52:21;;;;;;;1.58;1.50;;;;;;;;;;4962781;28;20419;-87
2022/06/01 11:54:56;;;;;;;2.17;1.98;;;;;;;;;;4971734;28;20086;-83
2022/06/01 11:57:26;;;;;;;2.20;2.10;;;;;;;;;;4948486;28;20057;-83
2022/06/01 11:59:52;;;;;;;3.53;2.63;;;;;;;;;;4947443;28;20060;-87
2022/06/01 12:02:40;;;;;;;2.90;2.70;;;;;;;;;;4986480;28;20430;-83
2022/06/01 12:05:23;;;;;;;4.55;2.92;;;;;;;;;;4987748;28;20105;-83
2022/06/01 12:07:57;;;;;;;2.95;2.75;;;14.80;99.90;;;;;;4979530;28;20138;-83
2022/06/01 12:10:30;;;;;;;2.95;2.75;;;;;;;;;;4968878;28;20090;-83
2022/06/01 12:12:58;;;;;;;3.28;2.97;;;;;;;;;;4984545;28;20046;-83
2022/06/01 12:15:33;;;;;;;2.28;2.08;;;;;;;;;;4987236;28;20092;-82
2022/06/01 12:18:19;;;;;;;4.95;2.50;;;;;;;;;;4995919;28;20065;-82
2022/06/01 12:20:48;;;;;;;2.30;2.10;;;;;;;;;;4972689;28;20105;-82
2022/06/01 12:28:47;;;;;;;4.93;1.98;;;;;;;;;;4992105;28;20080;-82
2022/06/01 12:31:16;;;;;;;3.97;1.80;;;;;;;;;;5051942;28;20088;-82
2022/06/01 12:34:03;;;;;;;3.05;1.83;;;14.50;99.90;;;;;;5051984;28;20052;-83
2022/06/01 12:36:35;;;;;;;1.48;1.30;;;;;;;;;;5052383;28;20045;-84
2022/06/01 12:39:08;;;;;;;2.83;1.55;;;14.20;99.90;;;;;;5069052;28;20455;-82
2022/06/01 12:41:36;;;;;;;3.40;1.30;;;;;;;;;;5052051;28;20051;-83
2022/06/01 12:44:05;;;;;;;1.83;1.65;;;;;;;;;;5051977;28;20056;-84
2022/06/01 12:46:38;;;;;;;2.28;1.40;;;;;;;;;;5051802;28;20445;-82
2022/06/01 12:49:30;;;;;;;1.17;1.17;;;14.10;99.90;;;;;;5069552;28;20110;-82
2022/06/01 12:51:59;;;;;;;1.40;1.30;;;;;;;;;;5068006;28;20056;-83
2022/06/01 12:54:38;;;;;;;2.45;1.60;;;13.80;99.90;;;;;;5066663;28;20449;-83
2022/06/01 12:57:05;;;;;;;1.30;1.20;;;;;;;;;;5051825;28;20048;-83
2022/06/01 12:59:33;;;;;;;1.15;1.05;;;;;;;;;;5051145;28;20594;-83
2022/06/01 13:02:01;;;;;;;2.22;1.70;;;;;;;;;;5066504;28;20045;-83
2022/06/01 13:04:27;;;;;;;4.68;1.45;;;14.20;99.90;;;;;;5068135;28;20512;-83
2022/06/01 13:06:54;;;;;;;1.52;1.42;;;14.00;99.90;;;;;;5068976;28;20045;-86
2022/06/01 13:09:24;;;;;;;2.50;2.30;;;;;;;;;;5067950;28;20028;-83
2022/06/01 13:11:57;;;;;;;2.83;2.17;;;;;;;;;;5051898;28;20388;-83
2022/06/01 13:14:26;;;;;;;2.67;2.47;;;14.00;99.90;;;;;;5066875;28;20115;-85
2022/06/01 13:16:52;;;;;;;3.92;2.45;;;;;;;;;;5050970;28;20087;-84
2022/06/01 13:19:21;;;;;;;3.95;2.35;;;;;;;;;;5068706;28;20040;-84
2022/06/01 13:21:54;;;;;;;3.47;2.60;;;;;;;;;;5051510;28;20515;-83
2022/06/01 13:24:21;;;;;;;4.10;2.90;;;;;;;;;;5068422;28;20038;-82
2022/06/01 13:26:52;;;;;;;3.88;2.42;;;;;;;;;;5066221;28;20052;-84
2022/06/01 13:29:28;;;;;;;5.88;3.15;;;;;;;;;;5068881;28;20677;-83
2022/06/01 13:32:00;;;;;;;2.88;2.63;;;14.30;99.90;;;;;;5048615;28;20159;-90
2022/06/01 13:34:43;;;;;;;3.53;3.05;;;14.70;99.90;;;;;;5050475;28;20092;-86
2022/06/01 13:37:16;;;;;;;2.70;2.47;;;14.60;99.90;;;;;;5048080;28;20048;-88
2022/06/01 13:39:48;;;;;;;4.47;2.83;;;;;;;;;;5067209;28;20139;-87
2022/06/01 13:42:28;;;;;;;3.28;2.97;;;14.90;99.90;;;;;;5067602;28;20056;-89
2022/06/01 13:44:56;;;;;;;3.10;2.85;;;;;;;;;;5050258;28;20048;-89
2022/06/01 13:47:30;;;;;;;2.78;2.58;;;14.90;99.90;;;;;;5063378;28;21015;-84
2022/06/01 13:50:16;;;;;;;3.10;2.10;;;15.40;99.90;;;;;;5065723;28;20044;-86
2022/06/01 13:52:58;;;;;;;3.05;2.42;;;15.30;99.90;;;;;;5049750;28;20055;-87
2022/06/01 13:55:29;;;;;;;3.88;2.28;;;;;;;;;;5050273;28;20048;-88
2022/06/01 13:58:08;;;;;;;2.67;2.47;;;;;;;;;;5049843;28;20048;-88
2022/06/01 14:00:41;;;;;;;2.95;2.65;;;15.30;99.90;;;;;;5049334;28;20048;-90
2022/06/01 14:03:07;;;;;;;2.80;2.10;;;;;;;;;;5067078;28;20056;-85
2022/06/01 14:05:35;;;;;;;3.90;2.60;;;;;;;;;;5066969;28;20044;-83
2022/06/01 14:08:10;;;;;;;2.40;2.20;;;;;;;;;;5050613;28;20166;-84
2022/06/01 14:10:46;;;;;;;4.53;2.13;;;15.50;99.90;;;;;;5048980;28;20097;-87
2022/06/01 14:13:13;;;;;;;2.08;1.98;;;;;;;;;;5066097;28;20052;-89
2022/06/01 14:15:39;;;;;;;2.65;2.45;;;;;;;;;;5049249;28;20134;-88
2022/06/01 14:18:14;;;;;;;3.15;2.90;;;15.50;99.90;;;;;;5072213;28;20059;-88
2022/06/01 14:20:40;;;;;;;2.20;2.10;;;;;;;;;;5074488;28;20110;-86
2022/06/01 14:23:06;;;;;;;2.88;2.67;;;;;;;;;;5070124;28;20087;-85
2022/06/01 14:28:30;;;;;;;2.33;2.13;;;;;;;;;;5071685;28;20098;-86
2022/06/01 14:31:00;;;;;;;2.70;2.28;;;;;;;;;;5069672;28;20071;-85
2022/06/01 14:33:26;;;;;;;2.50;2.30;;;;;;;;;;5070130;28;20057;-85
2022/06/01 14:35:53;;;;;;;2.33;2.13;;;;;;;;;;5070104;28;20049;-84
2022/06/01 14:38:19;;;;;;;2.40;2.25;;;;;;;;;;5053159;28;20598;-85
2022/06/01 14:40:49;;;;;;;3.22;2.67;;;;;;;;;;5071149;28;20056;-86
2022/06/01 14:43:16;;;;;;;3.78;3.25;;;;;;;;;;5053920;28;20482;-86
2022/06/01 14:45:42;;;;;;;6.50;3.40;;;;;;;;;;5069670;28;20102;-86
2022/06/01 14:48:08;;;;;;;4.55;4.15;;;;;;;;;;5070070;28;20044;-87
2022/06/01 14:50:34;;;;;;;4.55;3.95;;;;;;;;;;5053774;28;20504;-86
2022/06/01 14:53:04;;;;;;;6.95;4.38;;;;;;;;;;5071325;28;20048;-82
2022/06/01 14:55:30;;;;;;;4.13;3.65;;;;;;;;;;5066161;28;20078;-82
2022/06/01 14:58:00;;;;;;;5.07;3.35;;;;;;;;;;5067804;28;20558;-83
2022/06/01 15:00:26;;;;;;;7.57;3.80;;;;;;;;;;5066494;28;20084;-82
2022/06/01 15:02:54;;;;;;;4.60;4.15;;;;;;;;;;5050697;28;20102;-83
2022/06/01 15:05:20;;;;;;;4.75;4.35;;;;;;;;;;5067088;28;20048;-83